createdAt,value
2018-01-18T00:02:25.410Z,2.70
2018-01-18T00:04:52.962Z,2.80
2018-01-18T00:07:20.437Z,2.70
2018-01-18T00:09:47.885Z,2.70
2018-01-18T00:12:15.317Z,2.70
2018-01-18T00:14:42.766Z,2.70
2018-01-18T00:17:10.251Z,2.70
2018-01-18T00:19:37.690Z,2.70
2018-01-18T00:22:05.157Z,2.70
2018-01-18T00:24:32.638Z,2.90
2018-01-18T00:27:00.066Z,2.80
2018-01-18T00:29:27.526Z,2.80
2018-01-18T00:31:54.981Z,2.80
2018-01-18T00:34:22.478Z,2.80
2018-01-18T00:36:50.006Z,2.80
2018-01-18T00:39:17.446Z,2.80
2018-01-18T00:41:44.893Z,2.80
2018-01-18T00:44:12.385Z,2.90
2018-01-18T00:46:39.817Z,2.90
2018-01-18T00:49:07.321Z,2.90
2018-01-18T00:51:34.758Z,3.00
2018-01-18T00:54:02.189Z,3.00
2018-01-18T00:56:29.618Z,3.00
2018-01-18T00:58:57.118Z,3.10
2018-01-18T01:01:24.557Z,3.00
2018-01-18T01:03:51.997Z,3.00
2018-01-18T01:06:19.437Z,3.00
2018-01-18T01:08:47.633Z,2.80
2018-01-18T01:11:15.213Z,2.80
2018-01-18T01:13:42.678Z,2.90
2018-01-18T01:16:10.126Z,2.80
2018-01-18T01:18:37.580Z,2.70
2018-01-18T01:21:05.061Z,2.60
2018-01-18T01:23:32.498Z,2.50
2018-01-18T01:25:59.926Z,2.50
2018-01-18T01:28:27.372Z,2.50
2018-01-18T01:30:55.570Z,2.60
2018-01-18T01:33:23.007Z,2.50
2018-01-18T01:35:50.496Z,2.60
2018-01-18T01:38:17.945Z,2.70
2018-01-18T01:40:45.382Z,2.70
2018-01-18T01:43:12.815Z,2.70
2018-01-18T01:45:41.038Z,2.80
2018-01-18T01:48:08.508Z,2.80
2018-01-18T01:50:35.970Z,2.80
2018-01-18T01:53:03.497Z,2.90
2018-01-18T01:55:30.914Z,2.80
2018-01-18T01:57:59.120Z,2.90
2018-01-18T02:00:26.630Z,2.90
2018-01-18T02:02:54.065Z,3.00
2018-01-18T02:05:21.522Z,3.10
2018-01-18T02:07:48.981Z,3.20
2018-01-18T02:10:16.440Z,3.20
2018-01-18T02:12:43.903Z,3.20
2018-01-18T02:15:11.454Z,3.20
2018-01-18T02:17:38.894Z,3.30
2018-01-18T02:20:06.353Z,3.40
2018-01-18T02:22:33.844Z,3.30
2018-01-18T02:25:01.478Z,3.40
2018-01-18T02:27:29.027Z,3.40
2018-01-18T02:29:56.476Z,3.30
2018-01-18T02:32:23.946Z,3.30
2018-01-18T02:34:51.502Z,3.30
2018-01-18T02:37:18.958Z,3.30
2018-01-18T02:39:46.397Z,3.40
2018-01-18T02:42:13.970Z,3.40
2018-01-18T02:44:41.454Z,3.40
2018-01-18T02:47:08.894Z,3.40
2018-01-18T02:49:36.418Z,3.40
2018-01-18T02:52:03.842Z,3.50
2018-01-18T02:54:31.281Z,3.60
2018-01-18T02:56:58.721Z,3.60
2018-01-18T02:59:26.149Z,3.60
2018-01-18T03:01:53.737Z,3.50
2018-01-18T03:04:21.169Z,3.60
2018-01-18T03:06:48.593Z,3.60
2018-01-18T03:09:16.840Z,3.50
2018-01-18T03:11:44.268Z,3.50
2018-01-18T03:14:11.726Z,3.50
2018-01-18T03:16:39.153Z,3.60
2018-01-18T03:19:06.738Z,3.60
2018-01-18T03:21:34.198Z,3.70
2018-01-18T03:24:01.649Z,3.80
2018-01-18T03:26:29.081Z,3.80
2018-01-18T03:28:56.513Z,3.80
2018-01-18T03:31:24.733Z,3.90
2018-01-18T03:33:52.200Z,3.90
2018-01-18T03:36:19.652Z,3.90
2018-01-18T03:38:47.105Z,4.00
2018-01-18T03:41:14.561Z,4.00
2018-01-18T03:43:41.999Z,4.00
2018-01-18T03:46:09.441Z,4.10
2018-01-18T03:48:36.933Z,4.10
2018-01-18T03:51:04.432Z,4.10
2018-01-18T03:53:31.845Z,4.10
2018-01-18T03:55:59.291Z,4.10
2018-01-18T03:58:26.769Z,4.10
2018-01-18T04:00:54.219Z,4.10
2018-01-18T04:03:21.663Z,4.00
2018-01-18T04:05:49.150Z,4.00
2018-01-18T04:08:16.584Z,4.10
2018-01-18T04:10:44.122Z,4.00
2018-01-18T04:13:11.614Z,4.00
2018-01-18T04:15:39.061Z,4.00
2018-01-18T04:18:06.517Z,3.90
2018-01-18T04:20:33.978Z,4.00
2018-01-18T04:23:01.437Z,4.00
2018-01-18T04:25:28.878Z,4.10
2018-01-18T04:27:56.318Z,4.20
2018-01-18T04:30:23.801Z,4.10
2018-01-18T04:32:51.256Z,4.10
2018-01-18T04:35:18.721Z,4.10
2018-01-18T04:37:46.158Z,4.00
2018-01-18T04:40:13.628Z,4.10
2018-01-18T04:42:41.052Z,4.10
2018-01-18T04:45:08.545Z,4.10
2018-01-18T04:47:36.001Z,4.10
2018-01-18T04:50:03.445Z,4.10
2018-01-18T04:52:30.900Z,4.10
2018-01-18T04:54:58.369Z,4.20
2018-01-18T04:57:25.831Z,4.20
2018-01-18T04:59:53.277Z,4.20
2018-01-18T05:02:20.709Z,4.20
2018-01-18T05:04:48.185Z,4.20
2018-01-18T05:07:15.658Z,4.20
2018-01-18T05:09:43.209Z,4.20
2018-01-18T05:12:10.660Z,4.20
2018-01-18T05:14:38.196Z,4.20
2018-01-18T05:17:05.678Z,4.20
2018-01-18T05:19:33.135Z,4.20
2018-01-18T05:22:00.576Z,4.20
2018-01-18T05:24:28.046Z,4.30
2018-01-18T05:26:55.535Z,4.40
2018-01-18T05:29:23.737Z,4.30
2018-01-18T05:31:51.239Z,4.30
2018-01-18T05:34:18.653Z,4.30
2018-01-18T05:36:46.085Z,4.40
2018-01-18T05:39:14.432Z,4.40
2018-01-18T05:41:41.870Z,4.40
2018-01-18T05:44:09.293Z,4.40
2018-01-18T05:46:36.781Z,4.40
2018-01-18T05:49:04.210Z,4.30
2018-01-18T05:51:31.646Z,4.30
2018-01-18T05:54:00.056Z,4.30
2018-01-18T05:56:27.469Z,4.30
2018-01-18T05:58:55.726Z,4.40
2018-01-18T06:01:23.181Z,4.40
2018-01-18T06:03:50.618Z,4.40
2018-01-18T06:06:18.051Z,4.50
2018-01-18T06:08:45.542Z,4.50
2018-01-18T06:11:13.106Z,4.50
2018-01-18T06:13:40.599Z,4.40
2018-01-18T06:16:08.009Z,4.40
2018-01-18T06:18:35.446Z,4.40
2018-01-18T06:21:02.886Z,4.40
2018-01-18T06:23:30.382Z,4.40
2018-01-18T06:25:57.821Z,4.40
2018-01-18T06:28:25.295Z,4.50
2018-01-18T06:30:52.733Z,4.40
2018-01-18T06:33:20.170Z,4.40
2018-01-18T06:35:47.633Z,4.30
2018-01-18T06:38:15.110Z,4.30
2018-01-18T06:40:42.543Z,4.10
2018-01-18T06:43:10.022Z,4.10
2018-01-18T06:45:37.473Z,4.10
2018-01-18T06:48:04.933Z,4.10
2018-01-18T06:50:32.365Z,4.10
2018-01-18T06:52:59.806Z,4.10
2018-01-18T06:55:27.306Z,4.10
2018-01-18T06:57:54.740Z,4.10
2018-01-18T07:00:22.175Z,4.00
2018-01-18T07:02:49.621Z,4.00
2018-01-18T07:05:17.130Z,4.00
2018-01-18T07:07:44.563Z,4.10
2018-01-18T07:10:12.061Z,4.10
2018-01-18T07:12:39.495Z,4.00
2018-01-18T07:15:06.945Z,4.00
2018-01-18T07:17:34.386Z,3.90
2018-01-18T07:20:01.865Z,3.90
2018-01-18T07:22:29.299Z,3.90
2018-01-18T07:24:56.740Z,3.80
2018-01-18T07:27:24.174Z,3.70
2018-01-18T07:29:52.383Z,3.60
2018-01-18T07:32:19.838Z,3.50
2018-01-18T07:34:47.280Z,3.50
2018-01-18T07:37:14.754Z,3.30
2018-01-18T07:39:42.319Z,3.20
2018-01-18T07:42:09.769Z,3.20
2018-01-18T07:44:37.197Z,3.10
2018-01-18T07:47:05.406Z,3.00
2018-01-18T07:49:32.878Z,3.00
2018-01-18T07:52:00.330Z,2.90
2018-01-18T07:54:27.760Z,2.90
2018-01-18T07:57:00.845Z,2.90
2018-01-18T07:59:28.269Z,2.70
2018-01-18T08:01:56.524Z,2.70
2018-01-18T08:04:26.750Z,2.60
2018-01-18T08:06:54.197Z,2.60
2018-01-18T08:09:21.722Z,2.50
2018-01-18T08:11:49.281Z,2.60
2018-01-18T08:14:16.693Z,2.50
2018-01-18T08:16:44.929Z,2.40
2018-01-18T08:19:12.378Z,2.30
2018-01-18T08:21:39.815Z,2.30
2018-01-18T08:24:07.286Z,2.30
2018-01-18T08:26:34.741Z,2.20
2018-01-18T08:29:02.175Z,2.90
2018-01-18T08:31:30.159Z,2.10
2018-01-18T08:33:57.593Z,2.00
2018-01-18T08:36:25.785Z,2.00
2018-01-18T08:38:53.461Z,1.90
2018-01-18T08:41:21.014Z,1.90
2018-01-18T08:43:48.470Z,1.90
2018-01-18T08:46:16.050Z,1.90
2018-01-18T08:48:43.585Z,1.90
2018-01-18T08:51:11.054Z,1.80
2018-01-18T08:53:38.494Z,1.80
2018-01-18T08:56:05.969Z,1.70
2018-01-18T08:58:33.393Z,1.80
2018-01-18T09:01:01.068Z,1.80
2018-01-18T09:03:28.574Z,1.70
2018-01-18T09:05:56.798Z,1.70
2018-01-18T09:08:24.275Z,1.60
2018-01-18T09:10:51.713Z,1.70
2018-01-18T09:13:19.137Z,1.70
2018-01-18T09:15:46.573Z,1.70
2018-01-18T09:18:15.681Z,1.70
2018-01-18T09:20:43.234Z,1.60
2018-01-18T09:23:11.715Z,1.70
2018-01-18T09:25:39.146Z,1.60
2018-01-18T09:28:06.601Z,1.60
2018-01-18T09:30:34.085Z,1.60
2018-01-18T09:33:01.549Z,1.60
2018-01-18T09:35:29.025Z,1.60
2018-01-18T09:37:56.533Z,-1.30
2018-01-18T09:40:24.089Z,1.60
2018-01-18T09:42:53.560Z,1.70
2018-01-18T09:45:21.002Z,1.60
2018-01-18T09:47:48.473Z,1.60
2018-01-18T09:50:16.717Z,1.60
2018-01-18T09:52:44.240Z,1.50
2018-01-18T09:55:11.650Z,1.60
2018-01-18T09:57:39.134Z,1.60
2018-01-18T10:00:06.562Z,1.60
2018-01-18T10:02:34.002Z,1.60
2018-01-18T10:05:01.438Z,1.60
2018-01-18T10:07:28.974Z,1.60
2018-01-18T10:09:56.385Z,1.50
2018-01-18T10:12:24.625Z,1.50
2018-01-18T10:14:52.109Z,1.50
2018-01-18T10:17:19.555Z,1.50
2018-01-18T10:19:46.981Z,1.50
2018-01-18T10:22:14.456Z,1.50
2018-01-18T10:24:41.884Z,1.50
2018-01-18T10:27:09.366Z,1.50
2018-01-18T10:29:36.860Z,1.50
2018-01-18T10:32:05.075Z,1.40
2018-01-18T10:34:32.634Z,1.30
2018-01-18T10:37:00.044Z,1.30
2018-01-18T10:39:28.257Z,1.40
2018-01-18T10:41:55.669Z,1.40
2018-01-18T10:44:24.042Z,1.50
2018-01-18T10:46:51.581Z,1.60
2018-01-18T10:49:19.113Z,1.70
2018-01-18T10:51:46.674Z,1.70
2018-01-18T10:54:14.102Z,1.90
2018-01-18T10:56:42.295Z,1.70
2018-01-18T10:59:09.718Z,1.70
2018-01-18T11:01:38.034Z,1.80
2018-01-18T11:04:05.449Z,1.70
2018-01-18T11:06:33.765Z,2.00
2018-01-18T11:09:01.211Z,2.00
2018-01-18T11:11:29.418Z,2.20
2018-01-18T11:13:56.852Z,2.10
2018-01-18T11:16:24.302Z,2.30
2018-01-18T11:18:51.769Z,2.40
2018-01-18T11:21:19.220Z,2.40
2018-01-18T11:23:46.676Z,2.40
2018-01-18T11:26:14.119Z,2.60
2018-01-18T11:28:41.545Z,2.60
2018-01-18T11:31:09.763Z,2.70
2018-01-18T11:33:37.201Z,2.60
2018-01-18T11:36:04.645Z,2.70
2018-01-18T11:38:32.837Z,2.80
2018-01-18T11:41:00.270Z,2.70
2018-01-18T11:43:28.474Z,2.90
2018-01-18T11:45:56.014Z,2.90
2018-01-18T11:48:23.594Z,3.00
2018-01-18T11:50:51.068Z,2.90
2018-01-18T11:53:18.529Z,3.00
2018-01-18T11:55:45.968Z,3.10
2018-01-18T11:58:13.390Z,3.00
2018-01-18T12:00:41.597Z,2.90
2018-01-18T12:03:09.059Z,2.90
2018-01-18T12:05:36.509Z,3.00
2018-01-18T12:08:03.990Z,3.20
2018-01-18T12:10:31.422Z,3.20
2018-01-18T12:12:58.906Z,3.10
2018-01-18T12:15:26.332Z,3.10
2018-01-18T12:17:53.891Z,3.20
2018-01-18T12:20:21.402Z,3.20
2018-01-18T12:22:48.962Z,3.10
2018-01-18T12:25:17.198Z,2.70
2018-01-18T12:27:44.638Z,2.70
2018-01-18T12:30:12.082Z,2.90
2018-01-18T12:32:39.653Z,2.90
2018-01-18T12:35:07.109Z,3.10
2018-01-18T12:37:34.598Z,3.30
2018-01-18T12:40:02.037Z,3.40
2018-01-18T12:42:29.502Z,3.50
2018-01-18T12:44:56.950Z,3.50
2018-01-18T12:47:24.397Z,3.60
2018-01-18T12:49:51.948Z,3.60
2018-01-18T12:52:19.374Z,3.50
2018-01-18T12:54:47.600Z,3.50
2018-01-18T12:57:15.041Z,3.50
2018-01-18T12:59:42.593Z,3.60
2018-01-18T13:04:44.267Z,3.50
2018-01-18T13:07:11.741Z,3.40
2018-01-18T13:09:39.190Z,3.40
2018-01-18T13:12:06.736Z,3.40
2018-01-18T13:14:34.157Z,3.40
2018-01-18T13:17:02.369Z,3.30
2018-01-18T13:19:29.785Z,3.20
2018-01-18T13:21:58.037Z,2.90
2018-01-18T13:24:25.461Z,2.80
2018-01-18T13:26:52.932Z,2.60
2018-01-18T13:29:20.361Z,2.40
2018-01-18T13:31:47.789Z,2.40
2018-01-18T13:34:15.988Z,2.10
2018-01-18T13:36:44.695Z,2.00
2018-01-18T13:39:12.256Z,2.00
2018-01-18T13:41:39.682Z,1.80
2018-01-18T13:44:07.117Z,1.70
2018-01-18T13:46:35.453Z,1.80
2018-01-18T13:49:02.982Z,1.70
2018-01-18T13:51:30.468Z,1.70
2018-01-18T13:53:57.910Z,1.60
2018-01-18T13:56:25.356Z,1.60
2018-01-18T13:58:52.806Z,1.50
2018-01-18T14:01:20.291Z,1.50
2018-01-18T14:03:47.722Z,1.60
2018-01-18T14:06:15.279Z,1.50
2018-01-18T14:08:42.837Z,1.50
2018-01-18T14:11:10.293Z,1.50
2018-01-18T14:13:37.726Z,1.50
2018-01-18T14:16:05.181Z,1.50
2018-01-18T14:18:32.671Z,1.50
2018-01-18T14:21:00.221Z,1.50
2018-01-18T14:23:27.641Z,1.50
2018-01-18T14:25:55.836Z,1.40
2018-01-18T14:28:23.415Z,1.40
2018-01-18T14:30:50.968Z,1.50
2018-01-18T14:33:18.384Z,1.50
2018-01-18T14:35:46.562Z,1.50
2018-01-18T14:38:14.872Z,1.50
2018-01-18T14:40:42.429Z,1.50
2018-01-18T14:43:09.867Z,1.60
2018-01-18T14:45:38.118Z,1.60
2018-01-18T14:48:05.590Z,1.50
2018-01-18T14:50:33.033Z,1.60
2018-01-18T14:53:01.246Z,1.60
2018-01-18T14:55:28.678Z,1.60
2018-01-18T14:57:56.874Z,1.70
2018-01-18T15:00:24.303Z,1.60
2018-01-18T15:02:52.525Z,1.70
2018-01-18T15:05:19.958Z,1.70
2018-01-18T15:07:47.417Z,1.70
2018-01-18T15:10:14.885Z,1.70
2018-01-18T15:12:42.339Z,1.80
2018-01-18T15:15:09.823Z,1.80
2018-01-18T15:17:37.249Z,1.70
2018-01-18T15:20:04.716Z,1.70
2018-01-18T15:22:32.181Z,1.80
2018-01-18T15:24:59.626Z,1.80
2018-01-18T15:27:27.171Z,1.70
2018-01-18T15:29:54.587Z,1.80
2018-01-18T15:32:22.821Z,1.80
2018-01-18T15:34:50.261Z,1.80
2018-01-18T15:37:17.704Z,1.80
2018-01-18T15:39:45.198Z,1.90
2018-01-18T15:42:12.634Z,1.90
2018-01-18T15:44:40.082Z,1.90
2018-01-18T15:47:07.560Z,1.90
2018-01-18T15:49:35.014Z,2.00
2018-01-18T15:52:02.480Z,2.00
2018-01-18T15:54:29.929Z,2.00
2018-01-18T15:56:57.361Z,2.00
2018-01-18T15:59:24.858Z,2.00
2018-01-18T16:01:52.289Z,2.00
2018-01-18T16:04:19.882Z,4.70
2018-01-18T16:06:47.448Z,2.00
2018-01-18T16:09:14.981Z,2.00
2018-01-18T16:11:42.527Z,2.10
2018-01-18T16:14:10.050Z,2.10
2018-01-18T16:16:37.427Z,2.10
2018-01-18T16:19:05.009Z,2.10
2018-01-18T16:21:32.491Z,2.10
2018-01-18T16:23:59.938Z,2.10
2018-01-18T16:26:27.412Z,2.10
2018-01-18T16:28:54.862Z,2.10
2018-01-18T16:31:22.305Z,2.10
2018-01-18T16:33:49.861Z,2.10
2018-01-18T16:36:17.337Z,2.10
2018-01-18T16:38:44.801Z,2.10
2018-01-18T16:41:12.230Z,4.10
2018-01-18T16:43:39.685Z,2.10
2018-01-18T16:46:07.131Z,2.10
2018-01-18T16:48:34.558Z,2.10
2018-01-18T16:51:02.767Z,2.10
2018-01-18T16:53:30.245Z,2.00
2018-01-18T16:55:57.690Z,2.10
2018-01-18T16:58:25.152Z,2.10
2018-01-18T17:00:52.586Z,2.10
2018-01-18T17:03:20.073Z,2.10
2018-01-18T17:05:47.506Z,2.10
2018-01-18T17:08:14.990Z,2.10
2018-01-18T17:10:42.449Z,2.10
2018-01-18T17:13:09.901Z,2.10
2018-01-18T17:15:37.393Z,2.10
2018-01-18T17:18:04.853Z,2.10
2018-01-18T17:20:33.273Z,2.10
2018-01-18T17:23:00.689Z,2.00
2018-01-18T17:25:29.105Z,2.10
2018-01-18T17:27:56.533Z,2.10
2018-01-18T17:30:24.046Z,2.10
2018-01-18T17:32:51.498Z,2.10
2018-01-18T17:35:18.946Z,2.10
2018-01-18T17:37:46.430Z,2.10
2018-01-18T17:40:13.855Z,2.10
2018-01-18T17:42:41.285Z,2.10
2018-01-18T17:45:08.719Z,2.10
2018-01-18T17:47:36.949Z,2.10
2018-01-18T17:50:04.401Z,2.10
2018-01-18T17:52:31.865Z,2.10
2018-01-18T17:54:59.421Z,2.10
2018-01-18T17:57:26.861Z,2.10
2018-01-18T17:59:54.320Z,2.00
2018-01-18T18:02:21.766Z,2.10
2018-01-18T18:04:49.209Z,2.10
2018-01-18T18:07:16.707Z,2.10
2018-01-18T18:09:44.238Z,2.10
2018-01-18T18:12:11.664Z,2.10
2018-01-18T18:14:39.870Z,2.20
2018-01-18T18:17:07.302Z,2.10
2018-01-18T18:19:34.749Z,2.20
2018-01-18T18:22:02.960Z,2.20
2018-01-18T18:24:30.397Z,2.20
2018-01-18T18:26:57.885Z,2.20
2018-01-18T18:29:25.326Z,2.20
2018-01-18T18:31:52.778Z,2.20
2018-01-18T18:34:20.257Z,2.30
2018-01-18T18:36:48.662Z,2.30
2018-01-18T18:39:16.114Z,2.30
2018-01-18T18:41:43.538Z,2.30
2018-01-18T18:44:11.602Z,2.40
2018-01-18T18:46:39.089Z,-0.40
2018-01-18T18:49:06.635Z,2.40
2018-01-18T18:51:34.201Z,2.40
2018-01-18T18:54:01.626Z,2.40
2018-01-18T18:56:29.053Z,2.50
2018-01-18T18:58:57.257Z,2.40
2018-01-18T19:01:24.694Z,2.40
2018-01-18T19:03:52.122Z,2.40
2018-01-18T19:06:19.553Z,2.40
2018-01-18T19:08:46.985Z,2.50
2018-01-18T19:11:14.427Z,2.50
2018-01-18T19:13:41.912Z,2.50
2018-01-18T19:16:09.346Z,2.60
2018-01-18T19:18:36.788Z,2.60
2018-01-18T19:21:04.289Z,2.60
2018-01-18T19:23:31.819Z,2.60
2018-01-18T19:25:59.289Z,2.60
2018-01-18T19:28:26.723Z,2.50
2018-01-18T19:30:54.163Z,2.60
2018-01-18T19:33:21.662Z,2.70
2018-01-18T19:35:49.446Z,2.70
2018-01-18T19:38:16.879Z,2.70
2018-01-18T19:40:44.349Z,2.60
2018-01-18T19:43:11.810Z,2.60
2018-01-18T19:45:39.351Z,2.60
2018-01-18T19:48:06.806Z,2.60
2018-01-18T19:50:34.250Z,2.60
2018-01-18T19:53:01.722Z,2.50
2018-01-18T19:55:29.162Z,2.50
2018-01-18T19:57:56.633Z,2.40
2018-01-18T20:00:24.094Z,2.40
2018-01-18T20:02:51.511Z,2.30
2018-01-18T20:05:19.437Z,2.20
2018-01-18T20:07:46.973Z,2.30
2018-01-18T20:10:14.433Z,2.20
2018-01-18T20:12:42.014Z,2.30
2018-01-18T20:15:09.450Z,2.30
2018-01-18T20:17:36.897Z,2.40
2018-01-18T20:20:04.375Z,2.40
2018-01-18T20:22:31.841Z,2.40
2018-01-18T20:24:59.295Z,2.40
2018-01-18T20:27:26.727Z,2.40
2018-01-18T20:29:54.369Z,2.60
2018-01-18T20:32:21.879Z,2.50
2018-01-18T20:34:50.090Z,2.40
2018-01-18T20:37:17.577Z,2.40
2018-01-18T20:39:45.038Z,2.50
2018-01-18T20:42:12.570Z,2.50
2018-01-18T20:44:39.986Z,2.50
2018-01-18T20:47:08.177Z,2.50
2018-01-18T20:49:35.690Z,2.50
2018-01-18T20:52:03.120Z,2.50
2018-01-18T20:54:30.537Z,2.40
2018-01-18T20:56:58.758Z,2.40
2018-01-18T20:59:26.225Z,2.30
2018-01-18T21:01:53.721Z,2.40
2018-01-18T21:04:21.933Z,2.30
2018-01-18T21:06:49.453Z,2.30
2018-01-18T21:09:17.700Z,2.30
2018-01-18T21:11:45.200Z,2.30
2018-01-18T21:14:12.678Z,2.30
2018-01-18T21:16:40.260Z,2.40
2018-01-18T21:19:07.750Z,2.30
2018-01-18T21:21:35.272Z,2.30
2018-01-18T21:24:02.719Z,2.30
2018-01-18T21:26:31.537Z,2.20
2018-01-18T21:28:59.835Z,2.20
2018-01-18T21:31:28.094Z,2.20
2018-01-18T21:33:55.640Z,2.10
2018-01-18T21:36:23.084Z,2.10
2018-01-18T21:38:50.522Z,2.10
2018-01-18T21:41:18.030Z,2.10
2018-01-18T21:43:46.233Z,2.10
2018-01-18T21:46:13.673Z,2.00
2018-01-18T21:48:41.906Z,2.10
2018-01-18T21:51:09.347Z,2.00
2018-01-18T21:53:36.814Z,2.10
2018-01-18T21:56:04.354Z,2.10
2018-01-18T21:58:31.847Z,2.10
2018-01-18T22:00:59.306Z,2.10
2018-01-18T22:03:26.741Z,2.10
2018-01-18T22:05:54.257Z,2.10
2018-01-18T22:08:21.693Z,2.10
2018-01-18T22:10:49.900Z,2.10
2018-01-18T22:13:17.411Z,2.10
2018-01-18T22:15:44.941Z,2.20
2018-01-18T22:18:12.384Z,2.20
2018-01-18T22:20:39.817Z,2.20
2018-01-18T22:23:07.274Z,2.20
2018-01-18T22:25:34.766Z,2.20
2018-01-18T22:28:02.233Z,2.20
2018-01-18T22:30:29.884Z,2.20
2018-01-18T22:32:57.337Z,2.30
2018-01-18T22:35:24.773Z,2.30
2018-01-18T22:37:52.245Z,2.30
2018-01-18T22:40:19.706Z,2.40
2018-01-18T22:42:47.133Z,2.40
2018-01-18T22:45:14.681Z,2.40
2018-01-18T22:47:42.178Z,2.40
2018-01-18T22:50:09.675Z,2.40
2018-01-18T22:52:37.881Z,2.40
2018-01-18T22:55:05.375Z,2.30
2018-01-18T22:57:32.829Z,2.40
2018-01-18T23:00:00.394Z,2.40
2018-01-18T23:02:27.834Z,2.40
2018-01-18T23:04:55.278Z,2.40
2018-01-18T23:07:22.729Z,2.40
2018-01-18T23:09:50.169Z,2.40
2018-01-18T23:12:17.610Z,2.40
2018-01-18T23:15:00.798Z,2.50
2018-01-18T23:17:28.249Z,2.40
2018-01-18T23:19:55.700Z,2.50
2018-01-18T23:22:23.166Z,2.50
2018-01-18T23:24:50.617Z,2.50
2018-01-18T23:27:18.078Z,2.50
2018-01-18T23:29:45.530Z,2.50
2018-01-18T23:32:12.986Z,2.50
2018-01-18T23:34:40.435Z,2.40
2018-01-18T23:37:07.878Z,2.40
2018-01-18T23:39:35.349Z,2.50
2018-01-18T23:42:02.810Z,2.60
2018-01-18T23:44:30.243Z,2.60
2018-01-18T23:46:57.686Z,2.60
2018-01-18T23:49:25.121Z,2.60
2018-01-18T23:51:53.349Z,2.50
2018-01-18T23:54:20.793Z,2.50
2018-01-18T23:56:48.298Z,2.50
2018-01-18T23:59:16.643Z,2.40
